Gander, Canada
Current Conditions -  °F | °C
As of 3:00 AM on Wednesday 26 Nov 2014 (Local Time) from CYQX Reporting Station
Broken Clouds Broken Clouds  
Wind Chill: 37°   Ceiling: 26000
Heat Index: 45°   Visibility: 20mi
Dew Point: 34°   Wind: 20mph
Humidity: 66%   Direction: 250°WSW
Pressure: 29.63"   Gusts: 26mph
Location:  48.96°N, 54.61°W
Report Text: CYQX 260600Z 25017G23KT 20SM FEW020 FEW120 BKN260 07/01 A2963 RMK SC1AC1CI5 SLP038
Loading
Personal Weather Stations






























Interactive Weather Map New forecast layout! Learn more

10-Day Weather Forecast

Advertisements
Track Severe Weather on mobile